Time;durP1;ratioP1;P1;durP2;ratioP2;P2;SDS_P1;SDS_P2;PMS_P1;PMS_P2;Temp;Humidity;BMP_temperature;BMP_pressure;BME280_temperature;BME280_humidity;BME280_pressure;Samples;Min_cycle;Max_cycle;Signal;HPM_P1;HPM_P2
2022/03/27 00:00:38;;;;;;;9.10;5.17;;;4.90;99.90;;;;;;5073372;28;20185;-92
2022/03/27 00:03:06;;;;;;;8.57;5.20;;;4.70;99.90;;;;;;5073773;28;20173;-90
2022/03/27 00:05:32;;;;;;;8.60;5.07;;;4.60;99.90;;;;;;5074723;28;20414;-92
2022/03/27 00:07:57;;;;;;;11.87;5.47;;;4.60;99.90;;;;;;5074140;28;20904;-87
2022/03/27 00:10:23;;;;;;;8.70;4.17;;;4.70;99.90;;;;;;5073077;28;20419;-87
2022/03/27 00:12:48;;;;;;;12.13;5.00;;;4.70;99.90;;;;;;5074141;28;20205;-89
2022/03/27 00:15:14;;;;;;;11.73;4.97;;;4.70;99.90;;;;;;5072741;28;20171;-89
2022/03/27 00:17:39;;;;;;;11.13;5.50;;;4.50;99.90;;;;;;5073324;28;20169;-88
2022/03/27 00:20:08;;;;;;;10.67;5.20;;;4.40;99.90;;;;;;5070557;28;20525;-88
2022/03/27 00:22:36;;;;;;;12.27;4.77;;;4.60;99.90;;;;;;5053334;28;20170;-87
2022/03/27 00:25:02;;;;;;;8.27;5.90;;;4.70;99.90;;;;;;5053479;28;20908;-87
2022/03/27 00:27:28;;;;;;;10.80;6.07;;;4.50;99.90;;;;;;5068860;28;20448;-88
2022/03/27 00:29:54;;;;;;;15.50;6.83;;;4.40;99.90;;;;;;5053253;28;20967;-88
2022/03/27 00:32:20;;;;;;;9.23;4.70;;;4.60;99.90;;;;;;5070828;28;20469;-88
2022/03/27 00:34:46;;;;;;;8.67;4.83;;;4.50;99.90;;;;;;5073296;28;20235;-88
2022/03/27 00:37:12;;;;;;;10.27;4.97;;;4.30;99.90;;;;;;5073084;28;20423;-87
2022/03/27 00:39:38;;;;;;;12.90;4.97;;;4.40;99.90;;;;;;5072076;28;20177;-89
2022/03/27 00:42:03;;;;;;;9.60;4.43;;;4.70;99.90;;;;;;5072856;28;20439;-87
2022/03/27 00:44:32;;;;;;;8.50;4.00;;;4.60;99.90;;;;;;5072863;28;20697;-88
2022/03/27 00:46:58;;;;;;;11.10;4.93;;;4.50;99.90;;;;;;5072753;28;20214;-88
2022/03/27 00:49:23;;;;;;;15.97;5.37;;;4.50;99.90;;;;;;5065838;28;20436;-87
2022/03/27 00:51:49;;;;;;;10.80;5.13;;;4.50;99.90;;;;;;5052864;28;20236;-88
2022/03/27 00:54:15;;;;;;;10.47;4.97;;;4.60;99.90;;;;;;5068453;28;20614;-87
2022/03/27 00:56:41;;;;;;;11.63;5.73;;;4.50;99.90;;;;;;5052982;28;20173;-87
2022/03/27 00:59:07;;;;;;;11.87;5.40;;;4.40;99.90;;;;;;5068352;28;20437;-88
2022/03/27 01:01:38;;;;;;;8.30;4.30;;;4.40;99.90;;;;;;5052679;28;20180;-87
2022/03/27 01:04:05;;;;;;;12.87;5.27;;;4.30;99.90;;;;;;5068229;28;21034;-87
2022/03/27 01:06:38;;;;;;;8.27;4.47;;;4.20;99.90;;;;;;5068768;28;20420;-87
2022/03/27 01:11:51;;;;;;;10.33;4.40;;;4.10;99.90;;;;;;5057060;28;20447;-88
2022/03/27 01:14:31;;;;;;;7.00;4.20;;;4.20;99.90;;;;;;5056911;28;20529;-89
2022/03/27 01:17:02;;;;;;;7.80;4.27;;;4.10;99.90;;;;;;5055985;28;20415;-90
2022/03/27 01:19:28;;;;;;;6.50;4.30;;;4.10;99.90;;;;;;5055316;28;20424;-87
2022/03/27 01:21:54;;;;;;;10.90;4.50;;;4.10;99.90;;;;;;5055692;28;20408;-90
2022/03/27 01:24:20;;;;;;;8.67;4.20;;;4.10;99.90;;;;;;5056390;28;20431;-89
2022/03/27 01:26:46;;;;;;;12.03;5.10;;;4.10;99.90;;;;;;5055170;28;20178;-86
2022/03/27 01:29:12;;;;;;;13.03;6.60;;;4.10;99.90;;;;;;5056379;28;20203;-86
2022/03/27 01:31:38;;;;;;;9.00;4.10;;;4.10;99.90;;;;;;5054920;28;20418;-88
2022/03/27 01:34:07;;;;;;;8.13;3.10;;;4.00;99.90;;;;;;5056198;28;20428;-88
2022/03/27 01:36:34;;;;;;;8.63;4.80;;;3.90;99.90;;;;;;5056475;28;20417;-89
2022/03/27 01:39:06;;;;;;;9.93;5.00;;;4.00;99.90;;;;;;5054805;28;20774;-89
2022/03/27 01:41:32;;;;;;;7.00;4.23;;;4.00;99.90;;;;;;5055069;28;20471;-88
2022/03/27 01:43:59;;;;;;;8.50;4.17;;;3.80;99.90;;;;;;5055458;28;20464;-89
2022/03/27 01:46:25;;;;;;;8.73;4.60;;;3.80;99.90;;;;;;5055904;28;20507;-89
2022/03/27 01:48:51;;;;;;;8.00;5.90;;;3.70;99.90;;;;;;5055940;28;20496;-85
2022/03/27 01:51:16;;;;;;;8.87;4.60;;;3.70;99.90;;;;;;5064340;28;20177;-86
2022/03/27 01:53:42;;;;;;;8.77;4.20;;;3.80;99.90;;;;;;5075619;28;20225;-85
2022/03/27 01:56:08;;;;;;;11.07;5.40;;;3.80;99.90;;;;;;5075704;28;20172;-89
2022/03/27 01:58:40;;;;;;;10.27;4.80;;;3.70;99.90;;;;;;5075836;28;20561;-88
2022/03/27 02:01:07;;;;;;;7.50;4.60;;;3.70;99.90;;;;;;5075523;28;20418;-84
2022/03/27 02:03:33;;;;;;;9.80;5.40;;;3.70;99.90;;;;;;5075740;28;20485;-87
2022/03/27 02:05:58;;;;;;;10.23;4.80;;;3.70;99.90;;;;;;5075874;28;20903;-89
2022/03/27 02:08:24;;;;;;;15.73;5.30;;;3.60;99.90;;;;;;5075948;28;20622;-88
2022/03/27 02:10:50;;;;;;;8.70;3.83;;;3.60;99.90;;;;;;5076061;28;20578;-87
2022/03/27 02:13:21;;;;;;;15.80;6.27;;;3.60;99.90;;;;;;5075003;28;20546;-88
2022/03/27 02:15:47;;;;;;;9.60;4.63;;;3.50;99.90;;;;;;5075484;28;20945;-90
2022/03/27 02:18:14;;;;;;;16.50;5.50;;;3.60;99.90;;;;;;5075804;28;20415;-89
2022/03/27 02:20:40;;;;;;;6.70;4.03;;;3.50;99.90;;;;;;5075146;28;20261;-86
2022/03/27 02:23:07;;;;;;;10.20;5.23;;;3.50;99.90;;;;;;5074263;28;20470;-89
2022/03/27 02:25:33;;;;;;;9.00;5.00;;;3.50;99.90;;;;;;5075564;28;20763;-89
2022/03/27 02:27:58;;;;;;;11.27;4.47;;;3.50;99.90;;;;;;5074654;28;20427;-90
2022/03/27 02:30:24;;;;;;;9.67;5.30;;;3.40;99.90;;;;;;5074338;28;20424;-84
2022/03/27 02:32:50;;;;;;;6.90;4.30;;;3.40;99.90;;;;;;5075214;28;20215;-87
2022/03/27 02:35:15;;;;;;;9.17;5.73;;;3.40;99.90;;;;;;5074824;28;20528;-89
2022/03/27 02:37:41;;;;;;;14.70;6.10;;;3.30;99.90;;;;;;5075684;28;20180;-90
2022/03/27 02:40:07;;;;;;;11.07;5.00;;;3.30;99.90;;;;;;5075399;28;20656;-90
2022/03/27 02:42:32;;;;;;;9.90;5.07;;;3.30;99.90;;;;;;5075283;28;20564;-90
2022/03/27 02:45:05;;;;;;;6.90;4.70;;;3.30;99.90;;;;;;5074472;28;20446;-92
2022/03/27 02:47:31;;;;;;;12.87;5.00;;;3.20;99.90;;;;;;5075043;28;20298;-91
2022/03/27 02:49:57;;;;;;;10.57;5.97;;;3.20;99.90;;;;;;5075222;28;20436;-87
2022/03/27 02:52:22;;;;;;;8.63;5.00;;;3.30;99.90;;;;;;5074004;28;20553;-87
2022/03/27 02:54:48;;;;;;;7.27;5.17;;;3.40;99.90;;;;;;5074083;28;20258;-87
2022/03/27 02:57:16;;;;;;;12.20;6.80;;;3.50;99.90;;;;;;5075064;28;20174;-92
2022/03/27 02:59:41;;;;;;;8.10;6.03;;;3.40;99.90;;;;;;5074193;28;20507;-90
2022/03/27 03:02:10;;;;;;;7.80;4.87;;;3.30;99.90;;;;;;5074792;28;20418;-92
2022/03/27 03:04:36;;;;;;;13.10;6.03;;;3.30;99.90;;;;;;5075747;28;20608;-91
2022/03/27 03:07:02;;;;;;;17.50;7.80;;;3.40;99.90;;;;;;5074224;28;20450;-92
2022/03/27 03:09:28;;;;;;;18.70;6.60;;;3.50;99.90;;;;;;5075560;28;20165;-92
2022/03/27 03:11:54;;;;;;;14.47;7.80;;;3.60;99.90;;;;;;5074869;28;20950;-90
2022/03/27 03:14:20;;;;;;;13.93;8.40;;;3.60;99.90;;;;;;5074492;28;20485;-87
2022/03/27 03:16:46;;;;;;;25.50;9.40;;;3.70;99.90;;;;;;5074458;28;20177;-92
2022/03/27 03:19:12;;;;;;;18.87;8.73;;;3.70;99.90;;;;;;5074701;28;20227;-91
2022/03/27 03:21:40;;;;;;;15.67;8.17;;;3.70;99.90;;;;;;5073417;28;20518;-92
2022/03/27 03:24:06;;;;;;;13.97;9.40;;;3.70;99.90;;;;;;5074391;28;20558;-89
2022/03/27 03:26:32;;;;;;;13.57;8.93;;;3.60;99.90;;;;;;5073570;28;20424;-91
2022/03/27 03:28:58;;;;;;;27.70;9.07;;;3.60;99.90;;;;;;5074690;28;20832;-88
2022/03/27 03:31:23;;;;;;;18.20;9.77;;;3.60;99.90;;;;;;5073404;28;20232;-91
2022/03/27 03:33:49;;;;;;;17.90;9.60;;;3.50;99.90;;;;;;5073929;28;20450;-85
2022/03/27 03:36:15;;;;;;;23.57;10.10;;;3.60;99.90;;;;;;5074514;28;20177;-88
2022/03/27 03:38:41;;;;;;;18.53;10.23;;;3.60;99.90;;;;;;5073333;28;20173;-91
2022/03/27 03:41:06;;;;;;;35.20;11.83;;;3.60;99.90;;;;;;5074156;28;20425;-91
2022/03/27 03:43:32;;;;;;;27.13;10.00;;;3.50;99.90;;;;;;5074243;28;20209;-90
2022/03/27 03:46:00;;;;;;;37.00;12.37;;;3.50;99.90;;;;;;5072962;28;20256;-89
2022/03/27 03:48:26;;;;;;;41.50;13.47;;;3.50;99.90;;;;;;5074280;28;20629;-90
2022/03/27 03:50:51;;;;;;;42.30;14.30;;;3.50;99.90;;;;;;5074171;28;20411;-88
2022/03/27 03:53:17;;;;;;;51.87;14.00;;;3.50;99.90;;;;;;5072949;28;20237;-90
2022/03/27 03:55:45;;;;;;;44.53;12.53;;;3.50;99.90;;;;;;5074332;28;20579;-91
2022/03/27 03:58:10;;;;;;;64.30;14.30;;;3.60;99.90;;;;;;5072855;28;20533;-89
2022/03/27 04:00:36;;;;;;;28.77;12.97;;;3.60;99.90;;;;;;5073788;28;20411;-91
2022/03/27 04:03:02;;;;;;;34.77;12.97;;;3.70;99.90;;;;;;5074398;28;20236;-90
2022/03/27 04:05:28;;;;;;;43.00;11.87;;;3.70;99.90;;;;;;5074077;28;20576;-91
2022/03/27 04:07:54;;;;;;;50.07;16.00;;;3.60;99.90;;;;;;5074066;28;20412;-91
2022/03/27 04:10:19;;;;;;;40.00;12.40;;;3.70;99.90;;;;;;5074234;28;20688;-90
2022/03/27 04:12:45;;;;;;;39.40;12.40;;;3.70;99.90;;;;;;5073977;28;20178;-89
2022/03/27 04:15:11;;;;;;;53.80;13.43;;;3.70;99.90;;;;;;5073730;28;20169;-88
2022/03/27 04:17:45;;;;;;;43.73;13.03;;;3.70;99.90;;;;;;5074003;28;20180;-88
2022/03/27 04:20:12;;;;;;;42.43;12.43;;;3.80;99.90;;;;;;5073031;28;20911;-88
2022/03/27 04:22:39;;;;;;;35.77;12.20;;;3.70;99.90;;;;;;5073698;28;20457;-89
2022/03/27 04:25:07;;;;;;;35.03;11.97;;;3.60;99.90;;;;;;5073962;28;20454;-88
2022/03/27 04:27:33;;;;;;;40.47;12.10;;;3.70;99.90;;;;;;5074873;28;20403;-90
2022/03/27 04:29:58;;;;;;;48.90;13.27;;;3.70;99.90;;;;;;5074152;28;20476;-89
2022/03/27 04:32:24;;;;;;;37.97;11.90;;;3.70;99.90;;;;;;5072430;28;20172;-91
2022/03/27 04:34:50;;;;;;;18.30;8.73;;;3.70;99.90;;;;;;5073044;28;20170;-88
2022/03/27 04:37:16;;;;;;;29.80;13.40;;;3.70;99.90;;;;;;5073939;28;20174;-90
2022/03/27 04:39:42;;;;;;;41.80;11.47;;;3.70;99.90;;;;;;5073438;28;20423;-90
2022/03/27 04:42:11;;;;;;;34.17;11.37;;;3.60;99.90;;;;;;5072893;28;20450;-89
2022/03/27 04:44:37;;;;;;;22.90;9.90;;;3.70;99.90;;;;;;5076773;28;20427;-89
2022/03/27 04:47:03;;;;;;;38.63;12.07;;;3.70;99.90;;;;;;5077646;28;20498;-89
2022/03/27 04:49:28;;;;;;;37.17;12.10;;;3.70;99.90;;;;;;5076434;28;20180;-88
2022/03/27 04:51:54;;;;;;;38.33;11.90;;;3.70;99.90;;;;;;5077372;28;20462;-88
2022/03/27 04:54:19;;;;;;;41.80;13.30;;;3.70;99.90;;;;;;5077082;28;20176;-88
2022/03/27 04:56:45;;;;;;;34.47;10.97;;;3.70;99.90;;;;;;5076103;28;20168;-88
2022/03/27 04:59:11;;;;;;;31.27;11.47;;;3.60;99.90;;;;;;5078147;28;20192;-88
2022/03/27 05:01:36;;;;;;;36.13;13.40;;;3.60;99.90;;;;;;5076597;28;20223;-88
2022/03/27 05:04:04;;;;;;;40.13;13.70;;;3.60;99.90;;;;;;5075951;28;20261;-88
2022/03/27 05:06:29;;;;;;;31.93;12.50;;;3.60;99.90;;;;;;5075921;28;20259;-88
2022/03/27 05:08:58;;;;;;;25.83;12.47;;;3.60;99.90;;;;;;5075857;28;20527;-88
2022/03/27 05:11:28;;;;;;;26.03;11.47;;;3.60;99.90;;;;;;5075557;28;20169;-88
2022/03/27 05:13:54;;;;;;;39.53;12.17;;;3.60;99.90;;;;;;5077293;28;20410;-88
2022/03/27 05:16:20;;;;;;;26.97;10.60;;;3.70;99.90;;;;;;5075505;28;20418;-88
2022/03/27 05:18:45;;;;;;;36.63;12.00;;;3.60;99.90;;;;;;5075640;28;20919;-88
2022/03/27 05:21:11;;;;;;;27.87;11.80;;;3.60;99.90;;;;;;5075594;28;20169;-88
2022/03/27 05:23:37;;;;;;;28.63;10.30;;;3.70;99.90;;;;;;5076772;28;20288;-89
2022/03/27 05:26:08;;;;;;;32.67;10.30;;;3.70;99.90;;;;;;5075327;28;20192;-88
2022/03/27 05:28:34;;;;;;;21.70;10.10;;;3.70;99.90;;;;;;5075340;28;20751;-87
2022/03/27 05:31:01;;;;;;;34.77;11.80;;;3.70;99.90;;;;;;5075141;28;20566;-86
2022/03/27 05:33:26;;;;;;;37.47;10.47;;;3.70;99.90;;;;;;5075296;28;20954;-89
2022/03/27 05:35:53;;;;;;;23.40;11.10;;;3.60;99.90;;;;;;5074958;28;20407;-88
2022/03/27 05:38:19;;;;;;;38.80;13.17;;;3.70;99.90;;;;;;5074911;28;20172;-87
2022/03/27 05:40:45;;;;;;;27.03;11.30;;;3.80;99.90;;;;;;5075137;28;20419;-88
2022/03/27 05:43:13;;;;;;;24.47;11.73;;;3.80;99.90;;;;;;5075113;28;20463;-89
2022/03/27 05:45:40;;;;;;;42.73;11.90;;;3.80;99.90;;;;;;5074820;28;20271;-89
2022/03/27 05:48:06;;;;;;;28.00;13.53;;;3.90;99.90;;;;;;5075364;28;20518;-87
2022/03/27 05:50:32;;;;;;;32.57;11.90;;;3.80;99.90;;;;;;5074389;28;20947;-87
2022/03/27 05:52:57;;;;;;;24.63;13.00;;;3.80;99.90;;;;;;5075675;28;20232;-88
2022/03/27 05:55:25;;;;;;;28.83;11.47;;;3.90;99.90;;;;;;5073539;28;20165;-86
2022/03/27 05:57:50;;;;;;;35.43;12.60;;;4.00;99.90;;;;;;5075703;28;20836;-86
2022/03/27 06:00:21;;;;;;;31.83;13.07;;;4.00;99.90;;;;;;5073985;28;20416;-86
2022/03/27 06:02:48;;;;;;;33.40;11.93;;;4.10;99.90;;;;;;5075411;28;20199;-87
2022/03/27 06:05:18;;;;;;;35.53;11.37;;;4.10;99.90;;;;;;5074092;28;20492;-86
2022/03/27 06:07:48;;;;;;;28.43;11.17;;;4.10;99.90;;;;;;5074250;28;20504;-86
2022/03/27 06:10:15;;;;;;;31.87;11.30;;;4.10;99.90;;;;;;5076030;28;20423;-89
2022/03/27 06:12:43;;;;;;;37.80;15.57;;;4.10;99.90;;;;;;5076299;28;20770;-87
2022/03/27 06:15:09;;;;;;;37.30;11.37;;;4.00;99.90;;;;;;5074364;28;20434;-87
2022/03/27 06:17:42;;;;;;;32.63;12.30;;;4.10;99.90;;;;;;5075866;28;20426;-87
2022/03/27 06:20:09;;;;;;;35.53;13.07;;;4.20;99.90;;;;;;5074312;28;20423;-88
2022/03/27 06:22:35;;;;;;;24.77;11.27;;;4.20;99.90;;;;;;5075339;28;20455;-87
2022/03/27 06:25:02;;;;;;;28.70;11.20;;;4.30;99.90;;;;;;5074584;28;20522;-88
2022/03/27 06:27:27;;;;;;;37.50;11.93;;;4.30;99.90;;;;;;5075339;28;20173;-87
2022/03/27 06:29:56;;;;;;;25.27;10.50;;;4.20;99.90;;;;;;5074032;28;20433;-88
2022/03/27 06:32:22;;;;;;;36.57;12.13;;;4.40;99.90;;;;;;5074769;28;20211;-87
2022/03/27 06:34:47;;;;;;;29.57;11.80;;;4.40;99.90;;;;;;5074522;28;20419;-89
2022/03/27 06:37:13;;;;;;;39.33;14.67;;;4.40;99.90;;;;;;5074605;28;20479;-89
2022/03/27 06:39:39;;;;;;;31.00;11.70;;;4.60;99.90;;;;;;5075783;28;20226;-89
2022/03/27 06:42:05;;;;;;;22.33;11.70;;;4.60;99.90;;;;;;5075670;28;20193;-90
2022/03/27 06:44:31;;;;;;;54.13;14.70;;;4.60;99.90;;;;;;5074662;28;20184;-90
2022/03/27 06:46:56;;;;;;;41.53;15.30;;;4.70;99.90;;;;;;5075614;28;20407;-92
2022/03/27 06:49:22;;;;;;;45.47;16.90;;;4.70;99.90;;;;;;5075624;28;20644;-91
2022/03/27 06:51:48;;;;;;;45.00;15.70;;;4.70;99.90;;;;;;5075413;28;20213;-89
2022/03/27 06:54:13;;;;;;;36.33;13.57;;;4.80;99.90;;;;;;5074568;28;20169;-89
2022/03/27 06:56:41;;;;;;;34.37;13.73;;;4.80;99.90;;;;;;5075732;28;20181;-90
2022/03/27 06:59:06;;;;;;;34.03;13.93;;;4.90;99.90;;;;;;5073940;28;20169;-89
2022/03/27 07:04:16;;;;;;;34.13;15.80;;;4.80;99.90;;;;;;5075631;28;20235;-90
2022/03/27 07:06:43;;;;;;;43.77;15.30;;;4.90;99.90;;;;;;5074229;28;20420;-90
2022/03/27 07:09:09;;;;;;;56.50;18.30;;;4.90;99.90;;;;;;5074185;28;20180;-90
2022/03/27 07:11:36;;;;;;;42.80;16.77;;;4.80;99.90;;;;;;5074254;28;20413;-90
2022/03/27 07:14:02;;;;;;;41.27;17.17;;;5.00;99.90;;;;;;5075169;28;20431;-90
2022/03/27 07:16:27;;;;;;;37.13;13.87;;;5.10;99.90;;;;;;5073136;28;20465;-89
2022/03/27 07:18:53;;;;;;;31.77;11.70;;;5.00;99.90;;;;;;5074754;28;20664;-90
2022/03/27 07:21:22;;;;;;;31.13;14.00;;;5.10;99.90;;;;;;5073449;28;20211;-89
2022/03/27 07:23:47;;;;;;;30.57;11.73;;;5.00;99.90;;;;;;5073028;28;20258;-88
2022/03/27 07:26:13;;;;;;;20.43;12.03;;;5.00;99.90;;;;;;5072637;28;20842;-88
2022/03/27 07:28:39;;;;;;;30.50;13.63;;;5.10;99.90;;;;;;5072630;28;20590;-87
2022/03/27 07:31:05;;;;;;;33.10;12.70;;;5.20;99.90;;;;;;5072202;28;20423;-88
2022/03/27 07:33:30;;;;;;;23.93;11.80;;;5.30;99.90;;;;;;5072701;28;20533;-86
2022/03/27 07:35:57;;;;;;;23.83;11.00;;;5.40;99.90;;;;;;5072494;28;20173;-87
2022/03/27 07:38:26;;;;;;;22.70;8.80;;;5.40;99.90;;;;;;5072395;28;20173;-87
2022/03/27 07:40:51;;;;;;;23.47;10.47;;;5.50;99.90;;;;;;5073664;28;20927;-88
2022/03/27 07:43:17;;;;;;;23.23;9.70;;;5.60;99.90;;;;;;5073545;28;20592;-87
2022/03/27 07:45:42;;;;;;;25.73;10.47;;;5.80;99.90;;;;;;5071774;28;20635;-85
2022/03/27 07:48:11;;;;;;;25.60;10.33;;;5.90;99.90;;;;;;5072233;28;20173;-89
2022/03/27 07:50:37;;;;;;;20.77;8.40;;;6.00;99.90;;;;;;5072560;28;20177;-87
2022/03/27 07:53:05;;;;;;;27.47;10.57;;;6.10;99.90;;;;;;5071863;28;20468;-88
2022/03/27 07:55:32;;;;;;;23.70;11.07;;;6.10;99.90;;;;;;5075264;28;20506;-87
2022/03/27 07:57:57;;;;;;;29.80;11.00;;;6.10;99.90;;;;;;5073796;28;20423;-88
2022/03/27 08:00:23;;;;;;;19.23;11.00;;;6.30;99.90;;;;;;5073570;28;20417;-88
2022/03/27 08:02:49;;;;;;;22.30;11.50;;;6.30;99.90;;;;;;5073755;28;20206;-86
2022/03/27 08:05:15;;;;;;;32.50;13.77;;;6.30;99.90;;;;;;5074799;28;20424;-86
2022/03/27 08:07:41;;;;;;;26.37;12.80;;;6.30;99.90;;;;;;5073410;28;20243;-87
2022/03/27 08:10:07;;;;;;;25.93;13.40;;;6.40;99.90;;;;;;5073216;28;20611;-87
2022/03/27 08:12:36;;;;;;;26.40;12.73;;;6.60;99.90;;;;;;5074035;28;20916;-86
2022/03/27 08:15:05;;;;;;;21.57;10.50;;;6.40;99.90;;;;;;5071688;28;20933;-86
2022/03/27 08:17:31;;;;;;;21.60;13.33;;;6.50;99.90;;;;;;5072564;28;20416;-86
2022/03/27 08:19:57;;;;;;;28.47;14.07;;;6.60;99.90;;;;;;5077519;28;20408;-87
2022/03/27 08:22:24;;;;;;;26.20;14.07;;;6.70;99.90;;;;;;5082468;28;20415;-86
2022/03/27 08:24:50;;;;;;;29.07;13.60;;;6.70;99.90;;;;;;5073661;28;20166;-86
2022/03/27 08:27:16;;;;;;;29.13;13.47;;;6.70;99.90;;;;;;5072982;28;20425;-86
2022/03/27 08:29:42;;;;;;;20.47;12.10;;;6.90;99.90;;;;;;5071876;28;20503;-85
2022/03/27 08:32:13;;;;;;;24.90;13.87;;;6.80;99.90;;;;;;5072927;28;20174;-87
2022/03/27 08:34:40;;;;;;;31.23;16.70;;;6.80;99.90;;;;;;5074602;28;20812;-87
2022/03/27 08:37:09;;;;;;;31.30;17.77;;;7.10;99.90;;;;;;5073353;28;20421;-88
2022/03/27 08:39:35;;;;;;;36.20;20.13;;;7.20;99.90;;;;;;5073779;28;20762;-87
2022/03/27 08:42:02;;;;;;;36.73;18.67;;;7.30;99.90;;;;;;5075430;28;20437;-88
2022/03/27 08:44:29;;;;;;;31.43;19.70;;;7.40;99.90;;;;;;5074802;28;20481;-87
2022/03/27 08:46:56;;;;;;;48.47;22.00;;;7.50;99.90;;;;;;5073345;28;20498;-88
2022/03/27 08:49:41;;;;;;;42.10;20.20;;;7.70;99.90;;;;;;5072900;28;20530;-88
2022/03/27 08:52:30;;;;;;;43.63;19.93;;;7.80;99.90;;;;;;5076493;28;20465;-87
2022/03/27 08:55:06;;;;;;;34.67;18.37;;;7.80;99.90;;;;;;5077480;28;20453;-87
2022/03/27 08:57:37;;;;;;;34.67;18.73;;;7.90;99.90;;;;;;5075226;28;20501;-87
2022/03/27 09:00:04;;;;;;;43.23;19.10;;;8.10;99.90;;;;;;5070957;28;20414;-87
2022/03/27 09:02:30;;;;;;;28.40;17.70;;;8.20;99.90;;;;;;5071228;28;20474;-87
2022/03/27 09:04:56;;;;;;;30.30;16.57;;;8.40;99.90;;;;;;5072307;28;20432;-87
2022/03/27 09:07:29;;;;;;;27.67;15.80;;;8.70;99.90;;;;;;5072237;28;20175;-87
2022/03/27 09:09:58;;;;;;;30.33;15.50;;;9.40;70.80;;;;;;5072343;28;20468;-87
2022/03/27 09:12:23;;;;;;;23.23;13.30;;;9.30;69.90;;;;;;5072371;28;20413;-87
2022/03/27 09:14:49;;;;;;;28.57;14.43;;;9.90;1.00;;;;;;5072097;28;20824;-86
2022/03/27 09:17:18;;;;;;;32.30;13.60;;;10.70;99.90;;;;;;5072352;28;20173;-85
2022/03/27 09:19:49;;;;;;;23.67;13.60;;;11.50;99.90;;;;;;5071096;28;20415;-87
2022/03/27 09:22:19;;;;;;;24.53;13.60;;;11.10;99.90;;;;;;5071112;28;20418;-87
2022/03/27 09:25:06;;;;;;;22.40;14.47;;;10.80;99.90;;;;;;5072449;28;20450;-86
2022/03/27 09:27:33;;;;;;;22.53;13.10;;;11.20;99.90;;;;;;5071161;28;20428;-87
2022/03/27 09:30:10;;;;;;;24.30;13.67;;;14.40;1.00;;;;;;5070861;28;20429;-86
2022/03/27 09:32:53;;;;;;;20.63;11.20;;;16.00;99.90;;;;;;5074866;28;20415;-87
2022/03/27 09:35:21;;;;;;;15.63;10.60;;;16.90;99.90;;;;;;5074464;28;20425;-87
2022/03/27 09:37:47;;;;;;;14.50;9.63;;;17.50;99.90;;;;;;5075621;28;20471;-87
2022/03/27 09:40:15;;;;;;;18.40;10.13;;;16.30;99.90;;;;;;5074562;28;20912;-88
2022/03/27 09:42:42;;;;;;;19.97;10.57;;;16.70;99.90;;;;;;5075573;28;20463;-87
2022/03/27 09:45:17;;;;;;;12.73;8.70;;;17.60;99.90;;;;;;5074092;28;20526;-88
2022/03/27 09:47:45;;;;;;;14.77;10.40;;;17.20;99.90;;;;;;5074804;28;20421;-89
2022/03/27 09:50:32;;;;;;;14.97;8.93;;;17.90;99.90;;;;;;5074604;28;20434;-89
2022/03/27 09:53:18;;;;;;;16.73;9.70;;;17.10;99.90;;;;;;5075944;28;20873;-88
2022/03/27 09:55:44;;;;;;;13.87;10.47;;;18.00;99.90;;;;;;5076146;28;20403;-91
2022/03/27 09:58:09;;;;;;;16.40;10.70;;;18.70;99.90;;;;;;5075707;28;20428;-89
2022/03/27 10:00:35;;;;;;;15.87;10.30;;;18.70;99.90;;;;;;5075682;28;20201;-89
2022/03/27 10:03:12;;;;;;;17.37;11.60;;;19.20;99.90;;;;;;5073706;28;20211;-89
2022/03/27 10:05:38;;;;;;;14.40;9.37;;;19.50;92.30;;;;;;5053730;28;20510;-91
2022/03/27 10:08:04;;;;;;;17.77;10.70;;;19.50;79.10;;;;;;5057136;28;20453;-90
2022/03/27 10:10:30;;;;;;;11.10;9.03;;;19.30;72.40;;;;;;5058666;28;20420;-92
2022/03/27 10:12:57;;;;;;;21.03;9.37;;;19.50;69.90;;;;;;5055183;28;20435;-91
2022/03/27 10:15:25;;;;;;;14.90;9.30;;;19.40;65.40;;;;;;5057741;28;20208;-89
2022/03/27 10:18:13;;;;;;;13.43;8.97;;;19.50;61.70;;;;;;5055261;28;20412;-88
2022/03/27 10:20:39;;;;;;;14.30;8.90;;;19.40;56.60;;;;;;5054114;28;20443;-91
2022/03/27 10:23:13;;;;;;;15.43;9.60;;;19.40;55.90;;;;;;5055996;28;20400;-90
2022/03/27 10:25:50;;;;;;;11.73;8.10;;;19.50;56.90;;;;;;5056097;28;20587;-90
2022/03/27 10:28:18;;;;;;;13.20;8.60;;;20.10;58.90;;;;;;5056105;28;20764;-91
2022/03/27 10:30:44;;;;;;;13.27;8.03;;;19.70;45.10;;;;;;5054678;28;20428;-89
2022/03/27 10:33:10;;;;;;;10.13;7.07;;;20.10;48.10;;;;;;5069065;28;20494;-90
2022/03/27 10:36:03;;;;;;;11.90;8.20;;;19.90;44.30;;;;;;5054505;28;20414;-89
2022/03/27 10:38:44;;;;;;;11.47;7.17;;;20.10;47.30;;;;;;5054579;28;20404;-90
2022/03/27 10:41:23;;;;;;;11.03;6.90;;;20.40;43.90;;;;;;5054197;28;20809;-88
2022/03/27 10:44:37;;;;;;;11.17;7.37;;;20.80;44.10;;;;;;5059680;28;20423;-91
2022/03/27 10:47:20;;;;;;;10.43;7.27;;;20.40;38.70;;;;;;5069773;28;20431;-89
2022/03/27 10:50:01;;;;;;;9.03;6.50;;;20.20;34.60;;;;;;5074948;28;20481;-89
2022/03/27 10:52:27;;;;;;;10.50;6.27;;;20.80;42.80;;;;;;5073404;28;20454;-87
2022/03/27 10:54:58;;;;;;;9.10;7.07;;;21.20;39.30;;;;;;5074464;28;20791;-91
2022/03/27 10:57:34;;;;;;;10.50;7.20;;;21.30;37.30;;;;;;5065667;28;20785;-86
2022/03/27 10:59:59;;;;;;;9.13;6.57;;;20.50;41.10;;;;;;5070831;28;20452;-90
2022/03/27 11:02:41;;;;;;;8.73;6.23;;;20.40;33.80;;;;;;5072980;28;20431;-87
2022/03/27 11:05:07;;;;;;;9.27;6.90;;;20.80;37.20;;;;;;5074363;28;20172;-89
2022/03/27 11:07:33;;;;;;;11.27;7.13;;;20.90;34.90;;;;;;5072708;28;20561;-85
2022/03/27 11:09:58;;;;;;;11.33;6.37;;;21.40;37.50;;;;;;5073244;28;20232;-85
2022/03/27 11:12:24;;;;;;;7.53;6.00;;;21.40;33.10;;;;;;5074508;28;20161;-90
2022/03/27 11:14:52;;;;;;;10.43;6.37;;;21.90;31.80;;;;;;5074859;28;20208;-91
2022/03/27 11:17:37;;;;;;;8.87;6.10;;;21.40;36.80;;;;;;5074214;28;20184;-89
2022/03/27 11:20:09;;;;;;;10.87;7.03;;;21.80;26.10;;;;;;5074582;28;20419;-86
2022/03/27 11:22:55;;;;;;;8.60;6.13;;;21.30;25.60;;;;;;5072948;28;20420;-86
2022/03/27 11:25:39;;;;;;;8.83;7.30;;;21.30;21.60;;;;;;5072521;28;20458;-87
2022/03/27 11:28:11;;;;;;;9.57;7.00;;;21.30;23.50;;;;;;5073742;28;20471;-86
2022/03/27 11:31:14;;;;;;;7.70;6.17;;;21.80;24.60;;;;;;5073282;28;20431;-85
2022/03/27 11:33:40;;;;;;;7.70;6.50;;;21.90;24.40;;;;;;5036343;28;20827;-86
2022/03/27 11:36:07;;;;;;;9.57;7.63;;;22.10;25.20;;;;;;5074056;28;20412;-89
2022/03/27 11:38:51;;;;;;;7.20;6.30;;;21.40;19.60;;;;;;5073600;28;20256;-87
2022/03/27 11:41:30;;;;;;;10.13;7.33;;;21.40;20.70;;;;;;5073135;28;20511;-87
2022/03/27 11:44:17;;;;;;;10.13;8.03;;;21.30;17.40;;;;;;5073364;28;20395;-89
2022/03/27 11:46:56;;;;;;;12.27;8.37;;;21.10;18.00;;;;;;5072854;28;20450;-87
2022/03/27 11:49:35;;;;;;;11.07;8.90;;;21.80;20.90;;;;;;5073224;28;20775;-89
2022/03/27 11:52:12;;;;;;;9.87;8.60;;;21.50;21.50;;;;;;5123089;22;20767;-88
2022/03/27 11:54:38;;;;;;;10.87;8.73;;;21.80;21.20;;;;;;5050997;28;20439;-90
2022/03/27 11:57:05;;;;;;;9.93;8.73;;;21.50;17.10;;;;;;5051752;28;20507;-88
2022/03/27 11:59:31;;;;;;;9.60;8.30;;;21.50;19.90;;;;;;5051594;28;20548;-91
2022/03/27 12:02:02;;;;;;;10.80;8.17;;;21.70;19.80;;;;;;5053249;28;20441;-89
2022/03/27 12:04:28;;;;;;;12.50;7.90;;;22.50;23.10;;;;;;5053028;28;20418;-89
2022/03/27 12:06:58;;;;;;;11.57;9.00;;;22.50;24.10;;;;;;5051672;28;21274;-90
2022/03/27 12:09:31;;;;;;;12.70;8.93;;;22.20;16.40;;;;;;5052886;28;20173;-90
2022/03/27 12:12:11;;;;;;;12.23;8.60;;;21.90;13.50;;;;;;5053040;28;20591;-90
2022/03/27 12:14:54;;;;;;;9.90;8.60;;;22.10;14.40;;;;;;5052029;28;20475;-87
2022/03/27 12:17:20;;;;;;;11.70;9.87;;;22.50;21.80;;;;;;5052954;28;20404;-89
2022/03/27 12:20:05;;;;;;;13.67;9.07;;;22.50;16.60;;;;;;5053354;28;20768;-87
2022/03/27 12:22:42;;;;;;;12.00;9.73;;;21.80;12.30;;;;;;5051699;28;20413;-89
2022/03/27 12:25:19;;;;;;;9.53;8.53;;;21.80;13.70;;;;;;5053398;28;20407;-89
2022/03/27 12:30:37;;;;;;;11.10;9.17;;;21.80;12.80;;;;;;5052838;28;20445;-87
2022/03/27 12:33:04;;;;;;;11.83;9.37;;;21.90;13.60;;;;;;5052601;28;20454;-92
2022/03/27 12:35:31;;;;;;;11.80;10.57;;;21.90;12.20;;;;;;5052084;28;20428;-87
2022/03/27 12:37:59;;;;;;;12.90;10.57;;;21.40;10.50;;;;;;5051136;28;20408;-88
2022/03/27 12:40:26;;;;;;;11.20;9.30;;;21.90;13.60;;;;;;5050330;28;20420;-88
2022/03/27 12:42:54;;;;;;;13.07;10.47;;;21.80;12.70;;;;;;5052076;28;20423;-88
2022/03/27 12:45:30;;;;;;;13.53;8.70;;;21.80;20.60;;;;;;5052172;28;20415;-89
2022/03/27 12:48:14;;;;;;;11.40;8.50;;;21.90;11.60;;;;;;5052551;28;20412;-89
2022/03/27 12:50:45;;;;;;;11.80;8.97;;;21.60;9.60;;;;;;5052450;28;20499;-88
2022/03/27 12:53:22;;;;;;;9.00;8.10;;;21.50;9.10;;;;;;5052176;28;20480;-89
2022/03/27 12:55:51;;;;;;;10.60;8.70;;;22.10;13.80;;;;;;5052466;28;20491;-88